Rize — 9HA2781 — position and weather

sailwx.info

Track history (hours):
 
Tides and Currents Weather Stations Pressure Air Temp Water Temp Dewpoint Dewpoint Depression Visibility Wind Speed Wind Dir Waves Ship Positions

Rize

Last reported at 2016-Jun-27 11:06 UTC. Time now 2016-Jun-27 15:01 UTC.
Position N 37°37' E 008°49'.

Length 229 m; draft 8.5 m.

Type: Cargo ship. MMSI: 215677000.

Date/timePositionNaut miles runAvg speedWind from/ knotsBaromVisibWave heightAir tempDewpointWater temp
2016-Jun-27 11:06N 37°37' E 008°49'812.1
2016-Jun-27 10:28N 37°37' E 008°59'3411.5
2016-Jun-27 07:32N 37°38' E 009°41'6211.5
2016-Jun-27 02:09N 37°31' E 010°59'4712.1
2016-Jun-26 22:13N 37°09' E 011°52'913.2
2016-Jun-26 21:32N 37°05' E 012°02'1212.6
2016-Jun-26 20:33N 37°01' E 012°17'1312.6
2016-Jun-26 19:33N 36°57' E 012°32'1312.6
2016-Jun-26 18:33N 36°54' E 012°47'1212.5
2016-Jun-26 17:34N 36°50' E 013°02'1211.9
2016-Jun-26 16:34N 36°47' E 013°16'1111.0
2016-Jun-26 15:34N 36°43' E 013°29'1111.0
2016-Jun-26 14:33N 36°40' E 013°42'1111.1
2016-Jun-26 13:33N 36°37' E 013°55'1111.2
2016-Jun-26 12:33N 36°34' E 014°09'1211.6
2016-Jun-26 11:33N 36°30' E 014°23'1212.3
2016-Jun-26 10:34N 36°27' E 014°37'1312.6
2016-Jun-26 09:33N 36°23' E 014°52'  
2016-Jun-23 08:33N 32°01' E 034°09'1313.3
2016-Jun-23 07:33N 31°55' E 034°23'13 5.6
2016-Jun-23 05:18N 31°51' E 034°37'0 0.0
2016-Jun-23 02:33N 31°51' E 034°37'0 0.0
2016-Jun-23 01:24N 31°51' E 034°37'0 0.0
2016-Jun-23 00:18N 31°51' E 034°37'11 6.1
2016-Jun-22 22:34N 31°54' E 034°26'6 6.2
2016-Jun-22 21:34N 31°52' E 034°32'3 3.2
2016-Jun-22 20:34N 31°51' E 034°36'0 0.1
2016-Jun-22 19:29N 31°51' E 034°36'0 0.0
2016-Jun-22 18:32N 31°51' E 034°36'0 0.0
2016-Jun-22 16:32N 31°51' E 034°36'0 0.0
2016-Jun-22 13:23N 31°51' E 034°36'0 0.0
2016-Jun-22 12:32N 31°51' E 034°36'0 0.0
2016-Jun-22 11:26N 31°51' E 034°36'0 0.0
2016-Jun-22 10:32N 31°51' E 034°36'1 0.0
2016-Jun-21 20:34N 31°51' E 034°36'2 2.2
2016-Jun-21 19:32N 31°50' E 034°39'0 0.0
2016-Jun-21 18:32N 31°50' E 034°39'0 0.0
2016-Jun-21 17:29N 31°50' E 034°39'0 0.0
2016-Jun-21 15:32N 31°50' E 034°39'0 0.0
2016-Jun-21 14:29N 31°50' E 034°39'0 0.0
2016-Jun-21 13:29N 31°50' E 034°39'0 0.0
2016-Jun-21 12:32N 31°50' E 034°39'0 0.0
2016-Jun-21 11:32N 31°50' E 034°39'0 0.0
2016-Jun-21 10:32N 31°50' E 034°39'0 0.0
2016-Jun-21 09:32N 31°50' E 034°39'0 0.0
2016-Jun-21 08:32N 31°50' E 034°39'0 0.0
2016-Jun-20 21:11N 31°50' E 034°39'0 0.0
2016-Jun-20 20:32N 31°50' E 034°39'0 0.0
2016-Jun-20 19:23N 31°50' E 034°39'0 0.0
2016-Jun-20 18:29N 31°50' E 034°39'0 0.0
2016-Jun-20 17:26N 31°50' E 034°39'0 0.0
2016-Jun-20 16:29N 31°50' E 034°39'0 0.0
2016-Jun-20 15:32N 31°50' E 034°39'0 0.0
2016-Jun-20 14:32N 31°50' E 034°39'0 0.0
2016-Jun-20 11:26N 31°50' E 034°39'0 0.0
2016-Jun-20 10:32N 31°50' E 034°39'0 0.0
2016-Jun-20 09:29N 31°50' E 034°39'0 0.0
2016-Jun-19 22:08N 31°50' E 034°39'0 0.0
2016-Jun-19 21:17N 31°50' E 034°39'0 0.0
2016-Jun-19 20:32N 31°50' E 034°39'0 0.0
2016-Jun-19 18:32N 31°50' E 034°39'0 0.0
2016-Jun-19 17:29N 31°50' E 034°39'0 0.0
2016-Jun-19 16:23N 31°50' E 034°39'0 0.0
2016-Jun-19 15:32N 31°50' E 034°39'0 0.0
2016-Jun-19 14:26N 31°50' E 034°39'0 0.0
2016-Jun-19 13:32N 31°50' E 034°39'0 0.0
2016-Jun-19 12:32N 31°50' E 034°39'0 0.0
2016-Jun-19 11:26N 31°50' E 034°39'1 0.6
2016-Jun-19 10:34N 31°50' E 034°38'2 1.9
2016-Jun-19 09:34N 31°52' E 034°37'4 3.9
2016-Jun-19 08:31N 31°48' E 034°35'0 0.0
2016-Jun-18 22:22N 31°48' E 034°35'0 0.0
2016-Jun-18 21:31N 31°48' E 034°35'0 0.0
2016-Jun-18 20:31N 31°48' E 034°35'0 0.0
2016-Jun-18 19:31N 31°48' E 034°35'0 0.0
2016-Jun-18 18:31N 31°48' E 034°35'0 0.0
2016-Jun-18 17:31N 31°48' E 034°35'0 0.0
2016-Jun-18 16:31N 31°48' E 034°35'0 0.0
2016-Jun-18 15:31N 31°48' E 034°35'0 0.0
2016-Jun-18 14:31N 31°48' E 034°35'0 0.0
2016-Jun-18 13:16N 31°48' E 034°35'0 0.0
2016-Jun-18 11:22N 31°48' E 034°35'0 0.0
2016-Jun-17 20:13N 31°48' E 034°35'0 0.0
2016-Jun-17 17:31N 31°48' E 034°35'0 0.0
2016-Jun-17 16:31N 31°48' E 034°35'  
Track history (hours):
 
Tides and Currents Weather Stations Pressure Air Temp Water Temp Dewpoint Dewpoint Depression Visibility Wind Speed Wind Dir Waves Ship Positions

Rize

Last reported at 2016-Jun-27 11:06 UTC. Time now 2016-Jun-27 15:01 UTC.
Position N 37°37' E 008°49'.

Length 229 m; draft 8.5 m.

Type: Cargo ship. MMSI: 215677000.

Date/timePositionNaut miles runAvg speedWind from/ knotsBaromVisibWave heightAir tempDewpointWater temp
2016-Jun-27 11:06N 37°37' E 008°49'812.1
2016-Jun-27 10:28N 37°37' E 008°59'3411.5
2016-Jun-27 07:32N 37°38' E 009°41'6211.5
2016-Jun-27 02:09N 37°31' E 010°59'4712.1
2016-Jun-26 22:13N 37°09' E 011°52'913.2
2016-Jun-26 21:32N 37°05' E 012°02'1212.6
2016-Jun-26 20:33N 37°01' E 012°17'1312.6
2016-Jun-26 19:33N 36°57' E 012°32'1312.6
2016-Jun-26 18:33N 36°54' E 012°47'1212.5
2016-Jun-26 17:34N 36°50' E 013°02'1211.9
2016-Jun-26 16:34N 36°47' E 013°16'1111.0
2016-Jun-26 15:34N 36°43' E 013°29'1111.0
2016-Jun-26 14:33N 36°40' E 013°42'1111.1
2016-Jun-26 13:33N 36°37' E 013°55'1111.2
2016-Jun-26 12:33N 36°34' E 014°09'1211.6
2016-Jun-26 11:33N 36°30' E 014°23'1212.3
2016-Jun-26 10:34N 36°27' E 014°37'1312.6
2016-Jun-26 09:33N 36°23' E 014°52'  
2016-Jun-23 08:33N 32°01' E 034°09'1313.3
2016-Jun-23 07:33N 31°55' E 034°23'13 5.6
2016-Jun-23 05:18N 31°51' E 034°37'0 0.0
2016-Jun-23 02:33N 31°51' E 034°37'0 0.0
2016-Jun-23 01:24N 31°51' E 034°37'0 0.0
2016-Jun-23 00:18N 31°51' E 034°37'11 6.1
2016-Jun-22 22:34N 31°54' E 034°26'6 6.2
2016-Jun-22 21:34N 31°52' E 034°32'3 3.2
2016-Jun-22 20:34N 31°51' E 034°36'0 0.1
2016-Jun-22 19:29N 31°51' E 034°36'0 0.0
2016-Jun-22 18:32N 31°51' E 034°36'0 0.0
2016-Jun-22 16:32N 31°51' E 034°36'0 0.0
2016-Jun-22 13:23N 31°51' E 034°36'0 0.0
2016-Jun-22 12:32N 31°51' E 034°36'0 0.0
2016-Jun-22 11:26N 31°51' E 034°36'0 0.0
2016-Jun-22 10:32N 31°51' E 034°36'1 0.0
2016-Jun-21 20:34N 31°51' E 034°36'2 2.2
2016-Jun-21 19:32N 31°50' E 034°39'0 0.0
2016-Jun-21 18:32N 31°50' E 034°39'0 0.0
2016-Jun-21 17:29N 31°50' E 034°39'0 0.0
2016-Jun-21 15:32N 31°50' E 034°39'0 0.0
2016-Jun-21 14:29N 31°50' E 034°39'0 0.0
2016-Jun-21 13:29N 31°50' E 034°39'0 0.0
2016-Jun-21 12:32N 31°50' E 034°39'0 0.0
2016-Jun-21 11:32N 31°50' E 034°39'0 0.0
2016-Jun-21 10:32N 31°50' E 034°39'0 0.0
2016-Jun-21 09:32N 31°50' E 034°39'0 0.0
2016-Jun-21 08:32N 31°50' E 034°39'0 0.0
2016-Jun-20 21:11N 31°50' E 034°39'0 0.0
2016-Jun-20 20:32N 31°50' E 034°39'0 0.0
2016-Jun-20 19:23N 31°50' E 034°39'0 0.0
2016-Jun-20 18:29N 31°50' E 034°39'0 0.0
2016-Jun-20 17:26N 31°50' E 034°39'0 0.0
2016-Jun-20 16:29N 31°50' E 034°39'0 0.0
2016-Jun-20 15:32N 31°50' E 034°39'0 0.0
2016-Jun-20 14:32N 31°50' E 034°39'0 0.0
2016-Jun-20 11:26N 31°50' E 034°39'0 0.0
2016-Jun-20 10:32N 31°50' E 034°39'0 0.0
2016-Jun-20 09:29N 31°50' E 034°39'0 0.0
2016-Jun-19 22:08N 31°50' E 034°39'0 0.0
2016-Jun-19 21:17N 31°50' E 034°39'0 0.0
2016-Jun-19 20:32N 31°50' E 034°39'0 0.0
2016-Jun-19 18:32N 31°50' E 034°39'0 0.0
2016-Jun-19 17:29N 31°50' E 034°39'0 0.0
2016-Jun-19 16:23N 31°50' E 034°39'0 0.0
2016-Jun-19 15:32N 31°50' E 034°39'0 0.0
2016-Jun-19 14:26N 31°50' E 034°39'0 0.0
2016-Jun-19 13:32N 31°50' E 034°39'0 0.0
2016-Jun-19 12:32N 31°50' E 034°39'0 0.0
2016-Jun-19 11:26N 31°50' E 034°39'1 0.6
2016-Jun-19 10:34N 31°50' E 034°38'2 1.9
2016-Jun-19 09:34N 31°52' E 034°37'4 3.9
2016-Jun-19 08:31N 31°48' E 034°35'0 0.0
2016-Jun-18 22:22N 31°48' E 034°35'0 0.0
2016-Jun-18 21:31N 31°48' E 034°35'0 0.0
2016-Jun-18 20:31N 31°48' E 034°35'0 0.0
2016-Jun-18 19:31N 31°48' E 034°35'0 0.0
2016-Jun-18 18:31N 31°48' E 034°35'0 0.0
2016-Jun-18 17:31N 31°48' E 034°35'0 0.0
2016-Jun-18 16:31N 31°48' E 034°35'0 0.0
2016-Jun-18 15:31N 31°48' E 034°35'0 0.0
2016-Jun-18 14:31N 31°48' E 034°35'0 0.0
2016-Jun-18 13:16N 31°48' E 034°35'0 0.0
2016-Jun-18 11:22N 31°48' E 034°35'0 0.0
2016-Jun-17 20:13N 31°48' E 034°35'0 0.0
2016-Jun-17 17:31N 31°48' E 034°35'0 0.0
2016-Jun-17 16:31N 31°48' E 034°35'  

Dump ship's entire track history